createdAt,value
2022-11-08T00:05:20.314Z,77.66
2022-11-08T00:11:42.777Z,77.73
2022-11-08T00:17:44.516Z,77.75
2022-11-08T00:24:05.516Z,78.10
2022-11-08T00:30:17.269Z,77.97
2022-11-08T00:36:48.178Z,78.26
2022-11-08T00:43:10.975Z,78.32
2022-11-08T00:48:44.203Z,78.44
2022-11-08T00:55:07.088Z,78.74
2022-11-08T01:01:51.626Z,78.60
2022-11-08T01:08:15.123Z,78.76
2022-11-08T01:14:56.574Z,78.97
2022-11-08T01:21:38.840Z,79.07
2022-11-08T01:28:24.661Z,79.00
2022-11-08T01:34:49.369Z,79.04
2022-11-08T01:40:18.866Z,79.03
2022-11-08T01:46:40.099Z,79.00
2022-11-08T01:52:41.977Z,78.85
2022-11-08T01:58:40.347Z,78.97
2022-11-08T02:04:06.829Z,78.83
2022-11-08T02:10:18.290Z,79.10
2022-11-08T02:16:01.468Z,78.90
2022-11-08T02:22:09.373Z,78.97
2022-11-08T02:27:56.165Z,79.17
2022-11-08T02:33:59.166Z,79.10
2022-11-08T02:39:23.997Z,79.14
2022-11-08T02:44:58.338Z,79.06
2022-11-08T02:50:19.623Z,78.83
2022-11-08T02:56:24.375Z,78.69
2022-11-08T03:02:34.866Z,78.63
2022-11-08T03:08:06.566Z,78.72
2022-11-08T03:13:37.390Z,78.55
2022-11-08T03:19:30.165Z,78.43
2022-11-08T03:24:53.624Z,78.25
2022-11-08T03:30:42.673Z,78.37
2022-11-08T03:37:23.937Z,78.26
2022-11-08T03:44:05.329Z,78.43
2022-11-08T03:50:09.357Z,78.51
2022-11-08T03:56:29.847Z,78.23
2022-11-08T04:02:01.704Z,77.96
2022-11-08T04:08:02.237Z,78.22
2022-11-08T04:14:04.145Z,78.38
2022-11-08T04:20:25.256Z,78.65
2022-11-08T04:26:39.304Z,78.72
2022-11-08T04:32:22.229Z,78.81
2022-11-08T04:37:54.678Z,78.94
2022-11-08T04:43:36.125Z,78.94
2022-11-08T04:49:23.470Z,78.52
2022-11-08T04:55:26.101Z,78.64
2022-11-08T05:01:38.658Z,78.62
2022-11-08T05:07:48.168Z,78.99
2022-11-08T05:13:31.552Z,79.31
2022-11-08T05:19:13.162Z,79.61
2022-11-08T05:25:00.102Z,80.34
2022-11-08T05:30:56.418Z,81.35
2022-11-08T05:37:01.815Z,82.13
2022-11-08T05:42:30.803Z,82.32
2022-11-08T05:48:24.620Z,81.61
2022-11-08T05:54:19.163Z,81.23
2022-11-08T06:00:26.746Z,80.96
2022-11-08T06:06:29.969Z,80.77
2022-11-08T06:12:44.068Z,80.50
2022-11-08T06:18:35.677Z,80.28
2022-11-08T06:24:28.858Z,80.03
2022-11-08T06:30:08.578Z,79.99
2022-11-08T06:35:31.341Z,79.92
2022-11-08T06:40:54.512Z,79.70
2022-11-08T06:47:10.872Z,79.49
2022-11-08T06:53:42.858Z,79.05
2022-11-08T06:59:34.977Z,78.96
2022-11-08T07:04:59.212Z,78.92
2022-11-08T07:10:42.824Z,78.91
2022-11-08T07:16:15.938Z,78.75
2022-11-08T07:21:54.925Z,78.78
2022-11-08T07:27:22.071Z,78.63
2022-11-08T07:33:44.170Z,78.80
2022-11-08T07:40:27.891Z,78.55
2022-11-08T07:47:13.610Z,78.58
2022-11-08T07:53:26.154Z,78.50
2022-11-08T07:59:29.813Z,78.28
2022-11-08T08:05:47.873Z,77.80
2022-11-08T08:11:33.655Z,77.21
2022-11-08T08:18:18.803Z,76.99
2022-11-08T08:25:08.790Z,75.74
2022-11-08T08:32:08.510Z,75.42
2022-11-08T08:38:18.575Z,74.75
2022-11-08T08:44:57.679Z,74.08
2022-11-08T08:51:00.086Z,73.06
2022-11-08T08:57:05.713Z,72.51
2022-11-08T09:03:47.247Z,71.89
2022-11-08T09:10:30.540Z,71.70
2022-11-08T09:16:58.643Z,71.29
2022-11-08T09:48:27.659Z,66.36
2022-11-08T10:01:02.179Z,65.67
2022-11-08T10:07:00.880Z,66.12
2022-11-08T10:13:15.979Z,64.36
2022-11-08T10:25:14.851Z,63.09
2022-11-08T10:31:07.029Z,63.38
2022-11-08T10:37:56.360Z,62.33
2022-11-08T11:02:07.751Z,58.71
2022-11-08T11:07:50.702Z,58.42
2022-11-08T11:13:39.540Z,58.12
2022-11-08T11:26:41.689Z,55.43
2022-11-08T11:32:51.400Z,54.56
2022-11-08T11:38:35.909Z,54.31
2022-11-08T11:44:24.756Z,53.53
2022-11-08T11:56:58.622Z,53.60
2022-11-08T14:09:46.850Z,44.34
2022-11-08T14:16:34.641Z,44.51
2022-11-08T14:23:24.182Z,45.47
2022-11-08T14:30:13.321Z,44.58
2022-11-08T14:36:57.710Z,45.42
2022-11-08T14:56:57.869Z,51.76
2022-11-08T15:03:56.559Z,53.91
2022-11-08T15:10:41.016Z,57.05
2022-11-08T15:17:36.852Z,55.62
2022-11-08T15:43:22.199Z,62.47
2022-11-08T15:50:19.768Z,58.72
2022-11-08T15:56:56.147Z,53.06
2022-11-08T16:02:44.031Z,53.51
2022-11-08T16:08:17.021Z,53.88
2022-11-08T16:13:43.622Z,54.83
2022-11-08T16:19:34.544Z,55.59
2022-11-08T16:32:49.469Z,57.92
2022-11-08T16:38:11.990Z,58.75
2022-11-08T16:43:34.329Z,59.86
2022-11-08T16:50:01.882Z,60.84
2022-11-08T17:03:30.184Z,62.64
2022-11-08T17:08:54.559Z,63.27
2022-11-08T17:40:02.473Z,65.69
2022-11-08T17:45:26.613Z,66.17
2022-11-08T17:50:51.213Z,66.55
2022-11-08T17:56:17.742Z,66.63
2022-11-08T18:01:44.323Z,66.72
2022-11-08T18:07:12.004Z,67.02
2022-11-08T18:12:37.912Z,67.39
2022-11-08T18:26:44.892Z,68.00
2022-11-08T18:39:11.323Z,68.32
2022-11-08T18:44:56.043Z,68.45
2022-11-08T18:50:24.675Z,68.69
2022-11-08T18:56:29.620Z,69.00
2022-11-08T19:02:23.478Z,69.31
2022-11-08T19:08:18.960Z,69.58
2022-11-08T19:14:08.165Z,69.87
2022-11-08T19:19:59.275Z,70.18
2022-11-08T19:26:24.910Z,70.51
2022-11-08T19:32:54.807Z,70.77
2022-11-08T19:39:35.776Z,71.03
2022-11-08T19:45:27.905Z,71.32
2022-11-08T19:51:29.214Z,71.45
2022-11-08T19:57:46.581Z,71.57
2022-11-08T20:03:45.220Z,71.70
2022-11-08T20:10:20.355Z,71.94
2022-11-08T20:16:32.069Z,72.23
2022-11-08T20:23:14.406Z,72.68
2022-11-08T20:30:45.341Z,72.98
2022-11-08T20:36:14.667Z,73.47
2022-11-08T20:41:47.325Z,73.95
2022-11-08T20:47:10.773Z,74.18
2022-11-08T20:52:33.605Z,74.48
2022-11-08T20:58:00.454Z,74.79
2022-11-08T21:03:24.925Z,75.00
2022-11-08T21:08:59.225Z,75.23
2022-11-08T21:14:28.222Z,75.61
2022-11-08T21:19:52.183Z,75.72
2022-11-08T21:25:17.802Z,75.99
2022-11-08T21:30:46.203Z,76.09
2022-11-08T21:36:10.549Z,76.45
2022-11-08T21:41:40.716Z,76.34
2022-11-08T21:47:12.357Z,76.49
2022-11-08T21:52:36.170Z,76.60
2022-11-08T21:58:08.552Z,76.72
2022-11-08T22:03:33.861Z,76.74
2022-11-08T22:08:57.142Z,76.91
2022-11-08T22:14:19.808Z,76.95
2022-11-08T22:19:43.723Z,77.12
2022-11-08T22:25:11.979Z,77.25
2022-11-08T22:30:38.373Z,77.45
2022-11-08T22:36:04.275Z,77.43
2022-11-08T22:41:28.552Z,77.85
2022-11-08T22:46:52.093Z,78.16
2022-11-08T22:52:16.809Z,78.32
2022-11-08T22:58:21.545Z,78.33
2022-11-08T23:04:14.074Z,78.19
2022-11-08T23:09:40.351Z,78.21
2022-11-08T23:15:42.947Z,78.15
2022-11-08T23:21:30.008Z,78.21
2022-11-08T23:27:13.550Z,78.67
2022-11-08T23:32:46.697Z,78.94
2022-11-08T23:38:13.820Z,78.95
2022-11-08T23:43:55.304Z,79.10
2022-11-08T23:49:36.267Z,78.79
2022-11-08T23:55:01.610Z,79.10
